Queen Of Burnaby — VCVV — position and weather

sailwx.info

Track history (hours):
 
Tides and Currents Weather Stations Pressure Air Temp Water Temp Dewpoint Dewpoint Depression Visibility Wind Speed Wind Dir Waves Ship Positions

Queen Of Burnaby

Last reported at 2016-Dec-07 15:23 UTC. Time now 2016-Dec-07 16:24 UTC.
Position N 49°49' W 124°36'.

Length 130 m; draft 4 m.

MMSI: 316001246.

Date/timePositionNaut miles runAvg speedWind from/ knotsBaromVisibWave heightAir tempDewpointWater temp
2016-Dec-07 15:23N 49°49' W 124°36'1411.0
2016-Dec-07 14:08N 49°44' W 124°55'0 0.0
2016-Dec-07 12:12N 49°44' W 124°55'0 0.0
2016-Dec-07 06:04N 49°44' W 124°55'610.7
2016-Dec-07 05:30N 49°47' W 124°47'9 8.7
2016-Dec-07 04:24N 49°50' W 124°33'1414.8
2016-Dec-07 03:30N 49°45' W 124°53'2 2.1
2016-Dec-07 02:33N 49°44' W 124°55'1212.3
2016-Dec-07 01:33N 49°49' W 124°38'2 1.9
2016-Dec-07 00:28N 49°50' W 124°35'1312.7
2016-Dec-06 23:27N 49°45' W 124°53'1 0.5
2016-Dec-06 21:05N 49°44' W 124°55'814.6
2016-Dec-06 20:33N 49°47' W 124°44'2 0.9
2016-Dec-06 18:33N 49°47' W 124°47'6 5.1
2016-Dec-06 17:24N 49°45' W 124°55'1012.2
2016-Dec-06 16:33N 49°48' W 124°40'5 5.4
2016-Dec-06 15:34N 49°50' W 124°32'16 3.6
2016-Dec-06 11:08N 49°44' W 124°55'7 1.3
2016-Dec-06 05:23N 49°47' W 124°45'910.6
2016-Dec-06 04:33N 49°50' W 124°32'1412.8
2016-Dec-06 03:28N 49°45' W 124°52'12 5.7
2016-Dec-06 01:26N 49°49' W 124°35'2 1.7
2016-Dec-06 00:29N 49°50' W 124°34'1413.1
2016-Dec-05 23:24N 49°45' W 124°54'6 2.2
2016-Dec-05 20:33N 49°47' W 124°45'9 8.7
2016-Dec-05 19:33N 49°50' W 124°32'1110.1
2016-Dec-05 18:30N 49°47' W 124°47'6 6.0
2016-Dec-05 17:33N 49°44' W 124°55'1211.0
2016-Dec-05 16:26N 49°49' W 124°38'2 2.0
2016-Dec-05 15:31N 49°50' W 124°35'1312.2
2016-Dec-05 14:29N 49°45' W 124°54'1 0.2
2016-Dec-05 08:06N 49°44' W 124°55'5 2.0
2016-Dec-05 05:32N 49°47' W 124°48'1110.6
2016-Dec-05 04:30N 49°50' W 124°32'1313.7
2016-Dec-05 03:33N 49°46' W 124°51'3 3.1
2016-Dec-05 02:32N 49°44' W 124°55'1212.5
2016-Dec-05 01:33N 49°49' W 124°38'3 3.2
2016-Dec-05 00:30N 49°50' W 124°33'1414.3
2016-Dec-04 23:34N 49°45' W 124°53'2 1.9
2016-Dec-04 22:32N 49°44' W 124°55'0 0.0
2016-Dec-04 21:32N 49°44' W 124°55'9 8.6
2016-Dec-04 20:33N 49°48' W 124°43'8 7.8
2016-Dec-04 19:33N 49°50' W 124°32'1110.9
2016-Dec-04 18:33N 49°47' W 124°48'5 5.5
2016-Dec-04 17:33N 49°44' W 124°55'1110.7
2016-Dec-04 16:33N 49°48' W 124°40'4 3.8
2016-Dec-04 15:33N 49°50' W 124°35'1212.2
2016-Dec-04 14:33N 49°45' W 124°52'2 2.4
2016-Dec-04 13:33N 49°44' W 124°55'0 0.0
2016-Dec-04 12:33N 49°44' W 124°55'0 0.0
2016-Dec-04 11:30N 49°44' W 124°55'0 0.0
2016-Dec-04 10:33N 49°44' W 124°55'0 0.0
2016-Dec-04 09:33N 49°44' W 124°55'0 0.0
2016-Dec-04 08:33N 49°44' W 124°55'0 0.0
2016-Dec-04 07:30N 49°44' W 124°55'0 0.0
2016-Dec-04 06:30N 49°44' W 124°55'5 4.9
2016-Dec-04 05:33N 49°46' W 124°49'1210.2
2016-Dec-04 04:25N 49°50' W 124°32'910.0
2016-Dec-04 03:33N 49°47' W 124°44'8 7.6
2016-Dec-04 02:33N 49°44' W 124°55'0 0.0
2016-Dec-04 01:33N 49°44' W 124°55'0 0.0
2016-Dec-04 00:33N 49°44' W 124°55'0 0.0
2016-Dec-03 23:33N 49°44' W 124°55'0 0.0
2016-Dec-03 22:33N 49°44' W 124°55'0 0.0
2016-Dec-03 21:33N 49°44' W 124°55'7 7.4
2016-Dec-03 20:33N 49°47' W 124°44'9 7.7
2016-Dec-03 19:25N 49°50' W 124°32'1011.2
2016-Dec-03 18:33N 49°47' W 124°46'7 6.6
2016-Dec-03 17:33N 49°44' W 124°55'1111.3
2016-Dec-03 16:33N 49°48' W 124°39'3 3.2
2016-Dec-03 15:33N 49°50' W 124°35'1312.5
2016-Dec-03 14:33N 49°45' W 124°53'2 1.7
2016-Dec-03 13:25N 49°44' W 124°55'0 0.0
2016-Dec-03 12:33N 49°44' W 124°55'0 0.0
2016-Dec-03 11:30N 49°44' W 124°55'0 0.0
2016-Dec-03 10:24N 49°44' W 124°55'0 0.0
2016-Dec-03 09:34N 49°44' W 124°55'0 0.0
2016-Dec-03 08:34N 49°44' W 124°55'0 0.0
2016-Dec-03 07:28N 49°44' W 124°55'0 0.0
2016-Dec-03 06:30N 49°44' W 124°55'5 5.6
2016-Dec-03 05:33N 49°47' W 124°48'1110.8
2016-Dec-03 04:33N 49°50' W 124°32'1313.4
2016-Dec-03 03:33N 49°46' W 124°51'3 2.9
2016-Dec-03 02:33N 49°44' W 124°55'1413.5
2016-Dec-03 01:33N 49°49' W 124°36'2 2.4
2016-Dec-03 00:33N 49°50' W 124°33'1312.8
2016-Dec-02 23:33N 49°45' W 124°51'3 2.9
2016-Dec-02 22:28N 49°44' W 124°55'0 0.0
2016-Dec-02 21:22N 49°44' W 124°55'0 0.0
2016-Dec-02 20:28N 49°44' W 124°55'0 0.0
2016-Dec-02 19:19N 49°44' W 124°55'0 0.0
2016-Dec-02 18:33N 49°44' W 124°55'1212.4
2016-Dec-02 17:33N 49°41' W 124°37'9 8.8
2016-Dec-02 16:30N 49°50' W 124°32'7 6.9
2016-Dec-02 15:33N 49°46' W 124°40'1010.1
2016-Dec-02 14:34N 49°45' W 124°55'0 0.3
2016-Dec-02 13:33N 49°44' W 124°55'0 0.0
2016-Dec-02 12:30N 49°44' W 124°55'0 0.0
2016-Dec-02 11:30N 49°44' W 124°55'0 0.0
2016-Dec-02 10:33N 49°44' W 124°55'0 0.0
2016-Dec-02 09:33N 49°44' W 124°55'0 0.0
2016-Dec-02 08:33N 49°44' W 124°55'0 0.0
2016-Dec-02 07:33N 49°44' W 124°55'0 0.0
2016-Dec-02 06:33N 49°44' W 124°55'1010.2
2016-Dec-02 05:33N 49°48' W 124°40'5 4.6
2016-Dec-02 04:33N 49°50' W 124°34'1212.2
2016-Dec-02 03:33N 49°45' W 124°52'3 2.6
2016-Dec-02 02:33N 49°44' W 124°55'1212.5
2016-Dec-02 01:33N 49°49' W 124°37'3 3.5
2016-Dec-02 00:33N 49°50' W 124°33'1312.8
2016-Dec-01 23:34N 49°46' W 124°51'3 3.2
2016-Dec-01 22:33N 49°44' W 124°55'0 0.0
2016-Dec-01 21:32N 49°44' W 124°55'7 6.8
2016-Dec-01 20:33N 49°47' W 124°46'10 7.7
2016-Dec-01 19:19N 49°50' W 124°32'912.1
2016-Dec-01 18:33N 49°47' W 124°45'5 1.7
2016-Dec-01 15:25N 49°49' W 124°38'1 0.1
2016-Dec-01 04:04N 49°48' W 124°39'611.5
2016-Dec-01 03:33N 49°47' W 124°47'0 0.0
2016-Nov-30 18:33N 49°46' W 124°47'2 1.1
2016-Nov-30 17:06N 49°46' W 124°49'9 5.5
2016-Nov-30 15:30N 49°49' W 124°37'10 1.1
2016-Nov-30 06:12N 49°44' W 124°49'7 9.8
2016-Nov-30 05:30N 49°46' W 124°40'4 3.9
2016-Nov-30 04:25N 49°50' W 124°36'1112.1
2016-Nov-30 03:33N 49°45' W 124°51'1 1.3
2016-Nov-30 02:27N 49°44' W 124°50'10 4.9
2016-Nov-30 00:22N 49°49' W 124°36'1012.6
2016-Nov-29 23:33N 49°45' W 124°50'2 0.7
2016-Nov-29 21:16N 49°43' W 124°50'7 8.8
2016-Nov-29 20:28N 49°47' W 124°40'5 2.6
2016-Nov-29 18:27N 49°46' W 124°48'9 3.2
2016-Nov-29 15:27N 49°50' W 124°35'3 0.2
2016-Nov-29 04:06N 49°48' W 124°39'1 0.3
2016-Nov-29 00:12N 49°49' W 124°37'6 1.1
2016-Nov-28 18:28N 49°46' W 124°46'5 1.6
2016-Nov-28 15:13N 49°49' W 124°39'0 0.0
2016-Nov-28 04:07N 49°49' W 124°38'9 5.3
2016-Nov-28 02:20N 49°44' W 124°51'4 0.5
2016-Nov-27 18:33N 49°47' W 124°47'  
Track history (hours):
 
Tides and Currents Weather Stations Pressure Air Temp Water Temp Dewpoint Dewpoint Depression Visibility Wind Speed Wind Dir Waves Ship Positions

Queen Of Burnaby

Last reported at 2016-Dec-07 15:23 UTC. Time now 2016-Dec-07 16:24 UTC.
Position N 49°49' W 124°36'.

Length 130 m; draft 4 m.

MMSI: 316001246.

Date/timePositionNaut miles runAvg speedWind from/ knotsBaromVisibWave heightAir tempDewpointWater temp
2016-Dec-07 15:23N 49°49' W 124°36'1411.0
2016-Dec-07 14:08N 49°44' W 124°55'0 0.0
2016-Dec-07 12:12N 49°44' W 124°55'0 0.0
2016-Dec-07 06:04N 49°44' W 124°55'610.7
2016-Dec-07 05:30N 49°47' W 124°47'9 8.7
2016-Dec-07 04:24N 49°50' W 124°33'1414.8
2016-Dec-07 03:30N 49°45' W 124°53'2 2.1
2016-Dec-07 02:33N 49°44' W 124°55'1212.3
2016-Dec-07 01:33N 49°49' W 124°38'2 1.9
2016-Dec-07 00:28N 49°50' W 124°35'1312.7
2016-Dec-06 23:27N 49°45' W 124°53'1 0.5
2016-Dec-06 21:05N 49°44' W 124°55'814.6
2016-Dec-06 20:33N 49°47' W 124°44'2 0.9
2016-Dec-06 18:33N 49°47' W 124°47'6 5.1
2016-Dec-06 17:24N 49°45' W 124°55'1012.2
2016-Dec-06 16:33N 49°48' W 124°40'5 5.4
2016-Dec-06 15:34N 49°50' W 124°32'16 3.6
2016-Dec-06 11:08N 49°44' W 124°55'7 1.3
2016-Dec-06 05:23N 49°47' W 124°45'910.6
2016-Dec-06 04:33N 49°50' W 124°32'1412.8
2016-Dec-06 03:28N 49°45' W 124°52'12 5.7
2016-Dec-06 01:26N 49°49' W 124°35'2 1.7
2016-Dec-06 00:29N 49°50' W 124°34'1413.1
2016-Dec-05 23:24N 49°45' W 124°54'6 2.2
2016-Dec-05 20:33N 49°47' W 124°45'9 8.7
2016-Dec-05 19:33N 49°50' W 124°32'1110.1
2016-Dec-05 18:30N 49°47' W 124°47'6 6.0
2016-Dec-05 17:33N 49°44' W 124°55'1211.0
2016-Dec-05 16:26N 49°49' W 124°38'2 2.0
2016-Dec-05 15:31N 49°50' W 124°35'1312.2
2016-Dec-05 14:29N 49°45' W 124°54'1 0.2
2016-Dec-05 08:06N 49°44' W 124°55'5 2.0
2016-Dec-05 05:32N 49°47' W 124°48'1110.6
2016-Dec-05 04:30N 49°50' W 124°32'1313.7
2016-Dec-05 03:33N 49°46' W 124°51'3 3.1
2016-Dec-05 02:32N 49°44' W 124°55'1212.5
2016-Dec-05 01:33N 49°49' W 124°38'3 3.2
2016-Dec-05 00:30N 49°50' W 124°33'1414.3
2016-Dec-04 23:34N 49°45' W 124°53'2 1.9
2016-Dec-04 22:32N 49°44' W 124°55'0 0.0
2016-Dec-04 21:32N 49°44' W 124°55'9 8.6
2016-Dec-04 20:33N 49°48' W 124°43'8 7.8
2016-Dec-04 19:33N 49°50' W 124°32'1110.9
2016-Dec-04 18:33N 49°47' W 124°48'5 5.5
2016-Dec-04 17:33N 49°44' W 124°55'1110.7
2016-Dec-04 16:33N 49°48' W 124°40'4 3.8
2016-Dec-04 15:33N 49°50' W 124°35'1212.2
2016-Dec-04 14:33N 49°45' W 124°52'2 2.4
2016-Dec-04 13:33N 49°44' W 124°55'0 0.0
2016-Dec-04 12:33N 49°44' W 124°55'0 0.0
2016-Dec-04 11:30N 49°44' W 124°55'0 0.0
2016-Dec-04 10:33N 49°44' W 124°55'0 0.0
2016-Dec-04 09:33N 49°44' W 124°55'0 0.0
2016-Dec-04 08:33N 49°44' W 124°55'0 0.0
2016-Dec-04 07:30N 49°44' W 124°55'0 0.0
2016-Dec-04 06:30N 49°44' W 124°55'5 4.9
2016-Dec-04 05:33N 49°46' W 124°49'1210.2
2016-Dec-04 04:25N 49°50' W 124°32'910.0
2016-Dec-04 03:33N 49°47' W 124°44'8 7.6
2016-Dec-04 02:33N 49°44' W 124°55'0 0.0
2016-Dec-04 01:33N 49°44' W 124°55'0 0.0
2016-Dec-04 00:33N 49°44' W 124°55'0 0.0
2016-Dec-03 23:33N 49°44' W 124°55'0 0.0
2016-Dec-03 22:33N 49°44' W 124°55'0 0.0
2016-Dec-03 21:33N 49°44' W 124°55'7 7.4
2016-Dec-03 20:33N 49°47' W 124°44'9 7.7
2016-Dec-03 19:25N 49°50' W 124°32'1011.2
2016-Dec-03 18:33N 49°47' W 124°46'7 6.6
2016-Dec-03 17:33N 49°44' W 124°55'1111.3
2016-Dec-03 16:33N 49°48' W 124°39'3 3.2
2016-Dec-03 15:33N 49°50' W 124°35'1312.5
2016-Dec-03 14:33N 49°45' W 124°53'2 1.7
2016-Dec-03 13:25N 49°44' W 124°55'0 0.0
2016-Dec-03 12:33N 49°44' W 124°55'0 0.0
2016-Dec-03 11:30N 49°44' W 124°55'0 0.0
2016-Dec-03 10:24N 49°44' W 124°55'0 0.0
2016-Dec-03 09:34N 49°44' W 124°55'0 0.0
2016-Dec-03 08:34N 49°44' W 124°55'0 0.0
2016-Dec-03 07:28N 49°44' W 124°55'0 0.0
2016-Dec-03 06:30N 49°44' W 124°55'5 5.6
2016-Dec-03 05:33N 49°47' W 124°48'1110.8
2016-Dec-03 04:33N 49°50' W 124°32'1313.4
2016-Dec-03 03:33N 49°46' W 124°51'3 2.9
2016-Dec-03 02:33N 49°44' W 124°55'1413.5
2016-Dec-03 01:33N 49°49' W 124°36'2 2.4
2016-Dec-03 00:33N 49°50' W 124°33'1312.8
2016-Dec-02 23:33N 49°45' W 124°51'3 2.9
2016-Dec-02 22:28N 49°44' W 124°55'0 0.0
2016-Dec-02 21:22N 49°44' W 124°55'0 0.0
2016-Dec-02 20:28N 49°44' W 124°55'0 0.0
2016-Dec-02 19:19N 49°44' W 124°55'0 0.0
2016-Dec-02 18:33N 49°44' W 124°55'1212.4
2016-Dec-02 17:33N 49°41' W 124°37'9 8.8
2016-Dec-02 16:30N 49°50' W 124°32'7 6.9
2016-Dec-02 15:33N 49°46' W 124°40'1010.1
2016-Dec-02 14:34N 49°45' W 124°55'0 0.3
2016-Dec-02 13:33N 49°44' W 124°55'0 0.0
2016-Dec-02 12:30N 49°44' W 124°55'0 0.0
2016-Dec-02 11:30N 49°44' W 124°55'0 0.0
2016-Dec-02 10:33N 49°44' W 124°55'0 0.0
2016-Dec-02 09:33N 49°44' W 124°55'0 0.0
2016-Dec-02 08:33N 49°44' W 124°55'0 0.0
2016-Dec-02 07:33N 49°44' W 124°55'0 0.0
2016-Dec-02 06:33N 49°44' W 124°55'1010.2
2016-Dec-02 05:33N 49°48' W 124°40'5 4.6
2016-Dec-02 04:33N 49°50' W 124°34'1212.2
2016-Dec-02 03:33N 49°45' W 124°52'3 2.6
2016-Dec-02 02:33N 49°44' W 124°55'1212.5
2016-Dec-02 01:33N 49°49' W 124°37'3 3.5
2016-Dec-02 00:33N 49°50' W 124°33'1312.8
2016-Dec-01 23:34N 49°46' W 124°51'3 3.2
2016-Dec-01 22:33N 49°44' W 124°55'0 0.0
2016-Dec-01 21:32N 49°44' W 124°55'7 6.8
2016-Dec-01 20:33N 49°47' W 124°46'10 7.7
2016-Dec-01 19:19N 49°50' W 124°32'912.1
2016-Dec-01 18:33N 49°47' W 124°45'5 1.7
2016-Dec-01 15:25N 49°49' W 124°38'1 0.1
2016-Dec-01 04:04N 49°48' W 124°39'611.5
2016-Dec-01 03:33N 49°47' W 124°47'0 0.0
2016-Nov-30 18:33N 49°46' W 124°47'2 1.1
2016-Nov-30 17:06N 49°46' W 124°49'9 5.5
2016-Nov-30 15:30N 49°49' W 124°37'10 1.1
2016-Nov-30 06:12N 49°44' W 124°49'7 9.8
2016-Nov-30 05:30N 49°46' W 124°40'4 3.9
2016-Nov-30 04:25N 49°50' W 124°36'1112.1
2016-Nov-30 03:33N 49°45' W 124°51'1 1.3
2016-Nov-30 02:27N 49°44' W 124°50'10 4.9
2016-Nov-30 00:22N 49°49' W 124°36'1012.6
2016-Nov-29 23:33N 49°45' W 124°50'2 0.7
2016-Nov-29 21:16N 49°43' W 124°50'7 8.8
2016-Nov-29 20:28N 49°47' W 124°40'5 2.6
2016-Nov-29 18:27N 49°46' W 124°48'9 3.2
2016-Nov-29 15:27N 49°50' W 124°35'3 0.2
2016-Nov-29 04:06N 49°48' W 124°39'1 0.3
2016-Nov-29 00:12N 49°49' W 124°37'6 1.1
2016-Nov-28 18:28N 49°46' W 124°46'5 1.6
2016-Nov-28 15:13N 49°49' W 124°39'0 0.0
2016-Nov-28 04:07N 49°49' W 124°38'9 5.3
2016-Nov-28 02:20N 49°44' W 124°51'4 0.5
2016-Nov-27 18:33N 49°47' W 124°47'  

Dump ship's entire track history